createdAt,value
2023-04-22T00:01:02.336Z,3.13
2023-04-22T00:03:31.430Z,3.13
2023-04-22T00:06:00.087Z,2.80
2023-04-22T00:08:28.551Z,2.92
2023-04-22T00:10:57.135Z,2.85
2023-04-22T00:13:25.370Z,3.78
2023-04-22T00:15:55.005Z,4.78
2023-04-22T00:18:23.231Z,2.33
2023-04-22T00:20:51.380Z,2.72
2023-04-22T00:23:19.626Z,2.97
2023-04-22T00:25:47.865Z,2.20
2023-04-22T00:28:18.437Z,2.38
2023-04-22T00:30:46.798Z,2.30
2023-04-22T00:33:16.341Z,1.85
2023-04-22T00:35:45.228Z,2.58
2023-04-22T00:38:13.434Z,2.75
2023-04-22T00:40:41.771Z,2.58
2023-04-22T00:43:10.504Z,2.45
2023-04-22T00:45:38.829Z,3.05
2023-04-22T00:48:07.121Z,3.38
2023-04-22T00:50:36.691Z,3.65
2023-04-22T00:53:07.510Z,3.13
2023-04-22T00:55:36.315Z,2.83
2023-04-22T00:58:05.397Z,2.97
2023-04-22T01:00:33.932Z,2.83
2023-04-22T01:03:04.133Z,3.25
2023-04-22T01:05:32.980Z,2.75
2023-04-22T01:08:03.344Z,3.10
2023-04-22T01:10:31.606Z,2.22
2023-04-22T01:12:59.898Z,2.15
2023-04-22T01:15:28.700Z,2.03
2023-04-22T01:17:57.907Z,2.40
2023-04-22T01:20:30.445Z,2.35
2023-04-22T01:23:03.879Z,1.70
2023-04-22T01:25:34.563Z,2.22
2023-04-22T01:28:03.928Z,2.35
2023-04-22T01:30:32.950Z,3.00
2023-04-22T01:33:01.617Z,2.35
2023-04-22T01:35:36.666Z,1.80
2023-04-22T01:38:05.299Z,3.03
2023-04-22T01:40:35.849Z,2.47
2023-04-22T01:43:04.268Z,1.85
2023-04-22T01:45:32.623Z,2.15
2023-04-22T01:48:00.913Z,2.05
2023-04-22T01:50:29.310Z,2.17
2023-04-22T01:52:58.275Z,2.15
2023-04-22T01:55:29.469Z,2.95
2023-04-22T01:57:58.982Z,3.92
2023-04-22T02:00:27.233Z,3.55
2023-04-22T02:02:55.507Z,3.63
2023-04-22T02:05:25.430Z,2.95
2023-04-22T02:07:54.293Z,2.67
2023-04-22T02:10:22.817Z,3.65
2023-04-22T02:12:51.123Z,2.80
2023-04-22T02:15:20.989Z,2.33
2023-04-22T02:17:49.302Z,2.92
2023-04-22T02:20:18.727Z,2.50
2023-04-22T02:22:47.310Z,3.47
2023-04-22T02:25:15.547Z,2.45
2023-04-22T02:27:43.933Z,2.10
2023-04-22T02:30:13.404Z,1.80
2023-04-22T02:32:43.071Z,1.80
2023-04-22T02:35:12.062Z,2.10
2023-04-22T02:37:40.434Z,3.58
2023-04-22T02:40:09.831Z,3.53
2023-04-22T02:42:38.034Z,2.50
2023-04-22T02:45:07.444Z,2.30
2023-04-22T02:47:36.876Z,2.33
2023-04-22T02:50:08.739Z,2.35
2023-04-22T02:52:36.981Z,1.80
2023-04-22T02:55:05.670Z,2.00
2023-04-22T02:57:34.015Z,2.20
2023-04-22T03:00:02.422Z,2.35
2023-04-22T03:02:30.929Z,2.33
2023-04-22T03:05:15.976Z,2.20
2023-04-22T03:07:44.524Z,2.55
2023-04-22T03:10:13.094Z,2.28
2023-04-22T03:12:42.233Z,2.25
2023-04-22T03:15:11.085Z,1.85
2023-04-22T03:17:39.334Z,2.13
2023-04-22T03:20:12.705Z,1.90
2023-04-22T03:22:42.552Z,2.28
2023-04-22T03:25:13.389Z,1.98
2023-04-22T03:27:46.270Z,2.90
2023-04-22T03:30:14.684Z,1.85
2023-04-22T03:32:43.139Z,2.10
2023-04-22T03:35:33.882Z,2.17
2023-04-22T03:38:04.510Z,2.22
2023-04-22T03:40:35.454Z,2.75
2023-04-22T03:43:10.099Z,2.53
2023-04-22T03:45:39.185Z,2.58
2023-04-22T03:48:17.250Z,2.53
2023-04-22T03:50:49.695Z,2.53
2023-04-22T03:53:19.799Z,3.08
2023-04-22T03:55:48.174Z,2.58
2023-04-22T03:58:17.415Z,2.92
2023-04-22T04:00:47.343Z,2.60
2023-04-22T04:03:19.339Z,2.05
2023-04-22T04:05:51.516Z,2.17
2023-04-22T04:08:21.321Z,2.33
2023-04-22T04:10:50.384Z,4.78
2023-04-22T04:13:19.102Z,2.60
2023-04-22T04:16:02.529Z,2.20
2023-04-22T04:18:32.693Z,2.47
2023-04-22T04:21:01.747Z,2.58
2023-04-22T04:23:34.422Z,2.00
2023-04-22T04:26:05.788Z,2.47
2023-04-22T04:28:37.167Z,2.17
2023-04-22T04:31:06.361Z,2.50
2023-04-22T04:33:36.937Z,2.22
2023-04-22T04:36:05.650Z,2.88
2023-04-22T04:38:37.850Z,2.70
2023-04-22T04:41:08.680Z,3.78
2023-04-22T04:43:37.784Z,3.65
2023-04-22T04:46:17.657Z,3.10
2023-04-22T04:48:48.714Z,3.22
2023-04-22T04:51:19.651Z,2.45
2023-04-22T04:53:57.906Z,2.60
2023-04-22T04:56:30.906Z,2.60
2023-04-22T04:58:59.611Z,2.65
2023-04-22T05:01:29.474Z,2.47
2023-04-22T05:04:04.210Z,2.60
2023-04-22T05:06:33.804Z,2.00
2023-04-22T05:09:09.255Z,3.28
2023-04-22T05:11:38.267Z,2.80
2023-04-22T05:14:13.496Z,2.85
2023-04-22T05:16:44.224Z,3.25
2023-04-22T05:19:12.528Z,3.05
2023-04-22T05:21:40.843Z,3.17
2023-04-22T05:24:10.607Z,2.55
2023-04-22T05:26:38.959Z,2.60
2023-04-22T05:29:14.174Z,3.33
2023-04-22T05:31:42.661Z,3.13
2023-04-22T05:34:11.964Z,3.17
2023-04-22T05:36:40.682Z,2.92
2023-04-22T05:39:10.864Z,3.00
2023-04-22T05:41:40.467Z,3.40
2023-04-22T05:44:11.477Z,3.80
2023-04-22T05:46:40.005Z,3.08
2023-04-22T05:49:08.506Z,3.72
2023-04-22T05:51:55.084Z,3.47
2023-04-22T05:54:30.016Z,4.20
2023-04-22T05:56:58.468Z,5.05
2023-04-22T05:59:27.523Z,4.80
2023-04-22T06:01:56.531Z,5.25
2023-04-22T06:04:25.649Z,5.30
2023-04-22T06:06:54.473Z,6.55
2023-04-22T06:09:23.333Z,6.60
2023-04-22T06:11:53.867Z,5.53
2023-04-22T06:14:22.164Z,4.78
2023-04-22T06:16:52.692Z,5.45
2023-04-22T06:19:21.158Z,4.68
2023-04-22T06:21:49.337Z,4.57
2023-04-22T06:24:18.162Z,4.88
2023-04-22T06:26:46.529Z,5.30
2023-04-22T06:29:18.071Z,6.25
2023-04-22T06:31:46.649Z,6.43
2023-04-22T06:34:14.853Z,6.43
2023-04-22T06:36:45.560Z,7.18
2023-04-22T06:39:13.750Z,5.55
2023-04-22T06:41:50.142Z,5.60
2023-04-22T06:44:41.438Z,5.40
2023-04-22T06:47:45.369Z,4.88
2023-04-22T06:50:21.504Z,4.88
2023-04-22T06:52:55.488Z,5.45
2023-04-22T06:55:28.254Z,4.72
2023-04-22T06:57:56.781Z,4.70
2023-04-22T07:00:26.750Z,5.05
2023-04-22T07:02:55.284Z,4.57
2023-04-22T07:05:23.984Z,4.30
2023-04-22T07:07:52.442Z,4.22
2023-04-22T07:10:26.173Z,4.70
2023-04-22T07:13:13.158Z,4.18
2023-04-22T07:15:42.789Z,5.10
2023-04-22T07:18:10.996Z,4.63
2023-04-22T07:20:39.285Z,4.35
2023-04-22T07:23:07.506Z,5.43
2023-04-22T07:25:38.396Z,5.10
2023-04-22T07:28:08.576Z,5.32
2023-04-22T07:30:36.939Z,5.15
2023-04-22T07:33:06.718Z,5.53
2023-04-22T07:35:35.001Z,5.28
2023-04-22T07:38:03.430Z,5.97
2023-04-22T07:40:31.662Z,4.03
2023-04-22T07:42:59.839Z,5.50
2023-04-22T07:45:28.194Z,5.75
2023-04-22T07:47:56.537Z,5.75
2023-04-22T07:50:26.292Z,4.90
2023-04-22T07:52:57.337Z,5.43
2023-04-22T07:55:25.675Z,5.28
2023-04-22T07:57:53.858Z,6.25
2023-04-22T08:00:22.085Z,4.68
2023-04-22T08:02:50.980Z,5.97
2023-04-22T08:05:19.780Z,6.20
2023-04-22T08:07:49.409Z,6.45
2023-04-22T08:10:17.637Z,6.88
2023-04-22T08:12:46.008Z,7.45
2023-04-22T08:15:14.204Z,7.05
2023-04-22T08:17:42.419Z,5.75
2023-04-22T08:20:11.102Z,5.40
2023-04-22T08:22:39.824Z,5.07
2023-04-22T08:25:10.366Z,4.97
2023-04-22T08:27:38.741Z,4.90
2023-04-22T08:30:09.112Z,4.35
2023-04-22T08:32:37.473Z,4.75
2023-04-22T08:35:06.963Z,4.18
2023-04-22T08:37:39.518Z,3.88
2023-04-22T08:40:10.492Z,4.38
2023-04-22T08:42:39.199Z,3.67
2023-04-22T08:45:09.752Z,2.90
2023-04-22T08:47:39.123Z,3.55
2023-04-22T08:50:09.741Z,3.67
2023-04-22T08:52:38.934Z,3.70
2023-04-22T08:55:09.803Z,3.35
2023-04-22T08:57:40.492Z,3.60
2023-04-22T09:00:09.915Z,3.47
2023-04-22T09:02:39.271Z,3.97
2023-04-22T09:05:10.117Z,3.90
2023-04-22T09:07:40.958Z,3.50
2023-04-22T09:10:11.952Z,3.80
2023-04-22T09:12:42.368Z,5.07
2023-04-22T09:15:11.599Z,4.07
2023-04-22T09:17:41.289Z,3.40
2023-04-22T09:20:10.055Z,3.65
2023-04-22T09:22:41.057Z,3.05
2023-04-22T09:25:20.894Z,3.22
2023-04-22T09:27:52.792Z,3.40
2023-04-22T09:30:25.512Z,4.10
2023-04-22T09:32:55.054Z,5.18
2023-04-22T09:35:30.838Z,4.60
2023-04-22T09:38:01.214Z,3.45
2023-04-22T09:40:32.181Z,3.00
2023-04-22T09:43:03.587Z,2.80
2023-04-22T09:45:35.310Z,3.70
2023-04-22T09:48:07.450Z,3.60
2023-04-22T09:50:35.819Z,3.25
2023-04-22T09:53:05.943Z,3.45
2023-04-22T09:55:37.676Z,2.53
2023-04-22T09:58:08.845Z,3.88
2023-04-22T10:00:40.521Z,3.67
2023-04-22T10:03:10.861Z,3.60
2023-04-22T10:05:39.691Z,3.55
2023-04-22T10:08:09.553Z,3.92
2023-04-22T10:10:40.226Z,2.65
2023-04-22T10:13:09.877Z,3.45
2023-04-22T10:15:41.444Z,3.20
2023-04-22T10:18:15.977Z,3.45
2023-04-22T10:20:45.736Z,3.30
2023-04-22T10:23:16.851Z,3.20
2023-04-22T10:25:48.842Z,3.50
2023-04-22T10:28:18.620Z,3.15
2023-04-22T10:30:49.859Z,3.47
2023-04-22T10:33:36.985Z,3.30
2023-04-22T10:36:10.817Z,3.47
2023-04-22T10:38:40.087Z,3.28
2023-04-22T10:41:15.264Z,3.20
2023-04-22T10:43:45.512Z,3.38
2023-04-22T10:46:47.884Z,3.28
2023-04-22T10:49:21.596Z,3.75
2023-04-22T10:51:51.525Z,3.20
2023-04-22T10:54:58.027Z,3.33
2023-04-22T10:57:36.201Z,4.50
2023-04-22T11:03:12.410Z,4.25
2023-04-22T11:05:41.811Z,4.45
2023-04-22T11:08:16.485Z,4.57
2023-04-22T11:10:47.410Z,4.57
2023-04-22T11:13:18.881Z,4.57
2023-04-22T11:15:49.007Z,4.80
2023-04-22T11:18:20.617Z,4.85
2023-04-22T11:20:49.872Z,4.38
2023-04-22T11:23:23.242Z,4.20
2023-04-22T11:25:57.532Z,4.30
2023-04-22T11:28:27.753Z,3.97
2023-04-22T11:31:03.308Z,3.20
2023-04-22T11:33:32.991Z,4.05
2023-04-22T11:36:01.312Z,3.47
2023-04-22T11:38:29.841Z,4.05
2023-04-22T11:40:58.405Z,3.40
2023-04-22T11:43:28.048Z,3.55
2023-04-22T11:45:58.013Z,3.58
2023-04-22T11:48:26.725Z,3.35
2023-04-22T11:51:10.393Z,3.33
2023-04-22T11:53:41.142Z,3.08
2023-04-22T11:56:09.420Z,3.33
2023-04-22T11:58:41.418Z,3.30
2023-04-22T12:01:16.905Z,3.30
2023-04-22T12:03:45.334Z,3.15
2023-04-22T12:06:15.686Z,3.30
2023-04-22T12:08:44.925Z,3.50
2023-04-22T12:11:13.757Z,3.20
2023-04-22T12:13:46.204Z,3.42
2023-04-22T12:16:18.644Z,3.10
2023-04-22T12:18:51.297Z,3.15
2023-04-22T12:21:22.303Z,2.97
2023-04-22T12:23:53.211Z,2.90
2023-04-22T12:26:26.642Z,3.00
2023-04-22T12:28:58.292Z,3.13
2023-04-22T12:31:27.148Z,3.08
2023-04-22T12:33:55.697Z,3.03
2023-04-22T12:36:26.155Z,2.63
2023-04-22T12:38:54.400Z,3.10
2023-04-22T12:41:23.589Z,2.70
2023-04-22T12:43:52.532Z,2.40
2023-04-22T12:46:22.391Z,2.45
2023-04-22T12:48:50.739Z,3.03
2023-04-22T12:51:18.950Z,2.75
2023-04-22T12:53:47.195Z,2.80
2023-04-22T12:56:15.561Z,3.30
2023-04-22T12:58:43.750Z,3.03
2023-04-22T13:01:11.950Z,3.30
2023-04-22T13:03:41.866Z,3.05
2023-04-22T13:06:10.345Z,3.05
2023-04-22T13:08:38.696Z,3.08
2023-04-22T13:11:07.152Z,3.20
2023-04-22T13:13:35.639Z,3.38
2023-04-22T13:16:03.954Z,3.05
2023-04-22T13:18:32.602Z,2.78
2023-04-22T13:21:02.164Z,3.42
2023-04-22T13:23:30.817Z,3.03
2023-04-22T13:25:59.036Z,3.08
2023-04-22T13:28:27.219Z,2.97
2023-04-22T13:30:58.575Z,3.20
2023-04-22T13:33:26.861Z,2.58
2023-04-22T13:35:55.168Z,3.10
2023-04-22T13:38:24.741Z,2.95
2023-04-22T13:40:52.911Z,3.20
2023-04-22T13:43:21.085Z,3.25
2023-04-22T13:45:49.482Z,3.25
2023-04-22T13:48:17.697Z,2.63
2023-04-22T13:50:46.176Z,3.03
2023-04-22T13:53:15.459Z,2.97
2023-04-22T13:55:47.803Z,3.42
2023-04-22T13:58:16.042Z,3.08
2023-04-22T14:00:44.485Z,3.03
2023-04-22T14:03:12.922Z,3.83
2023-04-22T14:05:41.254Z,2.90
2023-04-22T14:08:09.448Z,3.35
2023-04-22T14:10:37.616Z,2.90
2023-04-22T14:13:09.856Z,2.80
2023-04-22T14:15:39.298Z,2.70
2023-04-22T14:18:07.628Z,2.70
2023-04-22T14:20:38.688Z,2.67
2023-04-22T14:23:07.189Z,3.20
2023-04-22T14:25:35.471Z,2.72
2023-04-22T14:28:04.003Z,3.22
2023-04-22T14:30:36.011Z,2.72
2023-04-22T14:33:06.948Z,2.88
2023-04-22T14:35:35.281Z,3.03
2023-04-22T14:38:05.148Z,3.08
2023-04-22T14:40:33.423Z,3.50
2023-04-22T14:43:09.066Z,3.38
2023-04-22T14:45:38.639Z,3.22
2023-04-22T14:48:07.139Z,3.28
2023-04-22T14:50:35.399Z,3.45
2023-04-22T14:53:04.119Z,3.92
2023-04-22T14:55:32.547Z,3.35
2023-04-22T14:58:00.805Z,3.28
2023-04-22T15:00:29.617Z,3.30
2023-04-22T15:02:59.375Z,3.00
2023-04-22T15:05:27.655Z,3.08
2023-04-22T15:07:58.989Z,3.28
2023-04-22T15:10:28.226Z,3.20
2023-04-22T15:12:56.404Z,3.00
2023-04-22T15:15:24.601Z,3.08
2023-04-22T15:17:52.892Z,2.95
2023-04-22T15:20:22.545Z,3.53
2023-04-22T15:22:50.772Z,3.33
2023-04-22T15:25:19.141Z,3.03
2023-04-22T15:27:47.966Z,2.95
2023-04-22T15:30:16.424Z,2.85
2023-04-22T15:32:44.636Z,2.40
2023-04-22T15:35:13.000Z,3.25
2023-04-22T15:37:42.552Z,3.22
2023-04-22T15:40:11.055Z,3.17
2023-04-22T15:42:39.279Z,2.92
2023-04-22T15:45:08.581Z,2.67
2023-04-22T15:47:37.439Z,2.72
2023-04-22T15:50:08.729Z,2.72
2023-04-22T15:52:38.391Z,2.80
2023-04-22T15:55:09.302Z,2.65
2023-04-22T15:57:37.539Z,2.97
2023-04-22T16:00:12.694Z,2.67
2023-04-22T16:02:54.929Z,2.50
2023-04-22T16:05:24.792Z,2.92
2023-04-22T16:07:53.706Z,3.00
2023-04-22T16:10:26.205Z,3.20
2023-04-22T16:12:57.419Z,5.00
2023-04-22T16:15:26.601Z,3.25
2023-04-22T16:17:54.838Z,3.38
2023-04-22T16:20:23.294Z,3.20
2023-04-22T16:22:51.574Z,2.72
2023-04-22T16:25:19.996Z,4.30
2023-04-22T16:27:49.669Z,3.97
2023-04-22T16:30:18.194Z,2.92
2023-04-22T16:32:46.411Z,3.30
2023-04-22T16:35:16.537Z,3.50
2023-04-22T16:37:44.836Z,2.80
2023-04-22T16:40:13.679Z,2.83
2023-04-22T16:42:42.049Z,2.40
2023-04-22T16:45:12.239Z,2.25
2023-04-22T16:47:40.589Z,2.85
2023-04-22T16:50:12.111Z,2.55
2023-04-22T16:52:40.445Z,2.75
2023-04-22T16:55:09.498Z,2.38
2023-04-22T16:57:37.688Z,2.70
2023-04-22T17:00:07.780Z,2.67
2023-04-22T17:02:37.634Z,2.55
2023-04-22T17:05:06.921Z,3.55
2023-04-22T17:07:35.139Z,3.88
2023-04-22T17:10:03.524Z,3.20
2023-04-22T17:12:31.965Z,3.05
2023-04-22T17:15:00.316Z,3.50
2023-04-22T17:17:28.549Z,4.10
2023-04-22T17:19:58.178Z,4.18
2023-04-22T17:22:26.972Z,3.88
2023-04-22T17:24:56.598Z,6.20
2023-04-22T17:27:24.859Z,7.20
2023-04-22T17:29:53.049Z,9.25
2023-04-22T17:32:21.291Z,10.10
2023-04-22T17:34:49.633Z,10.93
2023-04-22T17:37:19.215Z,15.25
2023-04-22T17:39:47.460Z,13.30
2023-04-22T17:42:16.244Z,11.70
2023-04-22T17:44:44.959Z,10.70
2023-04-22T17:47:13.227Z,8.48
2023-04-22T17:49:41.705Z,8.77
2023-04-22T17:52:10.111Z,11.18
2023-04-22T17:54:39.668Z,17.83
2023-04-22T17:57:07.856Z,17.05
2023-04-22T17:59:36.107Z,15.20
2023-04-22T18:02:04.807Z,14.40
2023-04-22T18:04:33.072Z,11.48
2023-04-22T18:07:01.524Z,10.30
2023-04-22T18:09:29.752Z,11.48
2023-04-22T18:11:59.558Z,11.10
2023-04-22T18:14:27.793Z,10.75
2023-04-22T18:16:59.137Z,9.60
2023-04-22T18:19:30.448Z,9.90
2023-04-22T18:22:00.283Z,11.13
2023-04-22T18:24:29.018Z,9.27
2023-04-22T18:26:57.208Z,9.77
2023-04-22T18:29:27.052Z,8.65
2023-04-22T18:31:55.284Z,7.97
2023-04-22T18:34:23.575Z,6.97
2023-04-22T18:36:51.840Z,7.13
2023-04-22T18:39:20.040Z,6.40
2023-04-22T18:41:48.364Z,5.88
2023-04-22T18:44:20.101Z,5.70
2023-04-22T18:46:50.363Z,5.10
2023-04-22T18:49:18.655Z,7.05
2023-04-22T18:51:49.153Z,9.18
2023-04-22T18:54:17.540Z,8.77
2023-04-22T18:56:46.058Z,8.75
2023-04-22T18:59:14.472Z,9.02
2023-04-22T19:01:42.848Z,9.90
2023-04-22T19:04:12.908Z,9.70
2023-04-22T19:06:41.405Z,10.57
2023-04-22T19:09:09.650Z,8.73
2023-04-22T19:11:37.894Z,8.55
2023-04-22T19:14:06.370Z,7.15
2023-04-22T19:16:37.012Z,7.53
2023-04-22T19:19:05.225Z,6.95
2023-04-22T19:21:35.893Z,6.78
2023-04-22T19:24:04.886Z,7.38
2023-04-22T19:26:33.133Z,6.85
2023-04-22T19:29:01.363Z,7.55
2023-04-22T19:31:30.233Z,7.65
2023-04-22T19:33:59.202Z,7.70
2023-04-22T19:36:28.165Z,8.68
2023-04-22T19:38:57.837Z,8.93
2023-04-22T19:41:28.983Z,9.23
2023-04-22T19:43:58.910Z,7.90
2023-04-22T19:46:27.289Z,6.60
2023-04-22T19:48:56.003Z,37.10
2023-04-22T19:51:24.766Z,33.85
2023-04-22T19:53:55.401Z,31.75
2023-04-22T19:56:25.759Z,20.63
2023-04-22T19:58:54.230Z,11.10
2023-04-22T20:01:22.780Z,8.48
2023-04-22T20:03:52.148Z,5.43
2023-04-22T20:06:22.744Z,6.28
2023-04-22T20:08:54.232Z,5.93
2023-04-22T20:11:25.942Z,5.80
2023-04-22T20:13:55.977Z,5.25
2023-04-22T20:16:25.089Z,5.38
2023-04-22T20:18:54.451Z,5.50
2023-04-22T20:21:22.882Z,4.75
2023-04-22T20:23:53.203Z,6.07
2023-04-22T20:26:22.279Z,5.05
2023-04-22T20:28:56.334Z,4.40
2023-04-22T20:31:24.945Z,4.30
2023-04-22T20:33:53.755Z,4.63
2023-04-22T20:36:22.443Z,4.68
2023-04-22T20:38:52.090Z,5.32
2023-04-22T20:41:20.698Z,5.28
2023-04-22T20:43:49.018Z,5.03
2023-04-22T20:46:20.756Z,4.45
2023-04-22T20:48:50.408Z,3.92
2023-04-22T20:51:19.063Z,3.45
2023-04-22T20:53:47.505Z,4.15
2023-04-22T20:56:15.696Z,3.22
2023-04-22T20:58:43.900Z,3.90
2023-04-22T21:01:16.149Z,3.95
2023-04-22T21:03:51.424Z,4.35
2023-04-22T21:06:21.590Z,4.75
2023-04-22T21:08:50.603Z,4.03
2023-04-22T21:11:19.500Z,3.95
2023-04-22T21:13:51.261Z,4.63
2023-04-22T21:16:24.118Z,4.68
2023-04-22T21:18:57.626Z,4.13
2023-04-22T21:21:31.348Z,4.88
2023-04-22T21:24:01.652Z,3.83
2023-04-22T21:26:30.769Z,3.78
2023-04-22T21:28:59.525Z,3.90
2023-04-22T21:31:28.116Z,4.28
2023-04-22T21:34:04.683Z,4.10
2023-04-22T21:36:33.068Z,3.72
2023-04-22T21:39:02.689Z,4.43
2023-04-22T21:41:31.005Z,3.70
2023-04-22T21:43:59.201Z,4.55
2023-04-22T21:46:27.408Z,4.90
2023-04-22T21:48:56.032Z,4.93
2023-04-22T21:51:27.053Z,7.00
2023-04-22T21:53:55.417Z,7.05
2023-04-22T21:56:23.644Z,6.68
2023-04-22T21:58:51.812Z,8.50
2023-04-22T22:01:20.019Z,6.85
2023-04-22T22:03:48.477Z,7.55
2023-04-22T22:06:16.807Z,8.68
2023-04-22T22:08:46.819Z,7.78
2023-04-22T22:11:27.485Z,8.27
2023-04-22T22:13:58.354Z,10.82
2023-04-22T22:16:28.228Z,12.25
2023-04-22T22:18:57.813Z,6.22
2023-04-22T22:21:26.220Z,4.93
2023-04-22T22:23:57.435Z,4.72
2023-04-22T22:26:26.203Z,4.40
2023-04-22T22:28:54.649Z,4.70
2023-04-22T22:31:22.853Z,4.18
2023-04-22T22:33:51.098Z,4.85
2023-04-22T22:36:19.763Z,5.13
2023-04-22T22:38:48.064Z,4.07
2023-04-22T22:41:17.647Z,5.05
2023-04-22T22:43:45.828Z,4.03
2023-04-22T22:46:14.262Z,4.07
2023-04-22T22:48:42.511Z,3.70
2023-04-22T22:51:18.366Z,3.90
2023-04-22T22:53:49.732Z,4.10
2023-04-22T22:56:20.969Z,4.60
2023-04-22T22:58:49.268Z,3.47
2023-04-22T23:01:17.572Z,4.57
2023-04-22T23:03:47.128Z,4.13
2023-04-22T23:06:15.579Z,3.95
2023-04-22T23:08:43.884Z,4.70
2023-04-22T23:11:12.486Z,3.53
2023-04-22T23:13:42.142Z,4.13
2023-04-22T23:16:10.355Z,4.47
2023-04-22T23:18:40.104Z,4.25
2023-04-22T23:21:08.587Z,4.57
2023-04-22T23:23:37.725Z,4.70
2023-04-22T23:26:07.736Z,3.88
2023-04-22T23:28:36.666Z,3.88
2023-04-22T23:31:09.045Z,4.55
2023-04-22T23:33:42.572Z,4.28
2023-04-22T23:36:13.620Z,4.57
2023-04-22T23:38:41.862Z,4.07
2023-04-22T23:41:10.035Z,4.07
2023-04-22T23:43:38.204Z,4.10
2023-04-22T23:46:07.904Z,4.53
2023-04-22T23:48:36.126Z,4.05
2023-04-22T23:51:04.351Z,4.60
2023-04-22T23:53:32.523Z,4.20
2023-04-22T23:56:01.285Z,4.00
2023-04-22T23:58:29.785Z,4.47
